createdAt,value
2022-12-16T00:00:01.081Z,433.2
2022-12-16T00:05:01.212Z,408.7
2022-12-16T00:10:01.102Z,420.6
2022-12-16T00:15:01.174Z,403.9
2022-12-16T00:20:01.081Z,418.0
2022-12-16T00:25:01.209Z,383.1
2022-12-16T00:30:01.089Z,390.7
2022-12-16T00:35:01.232Z,411.6
2022-12-16T00:40:01.086Z,395.2
2022-12-16T00:45:01.148Z,383.0
2022-12-16T00:50:01.088Z,415.2
2022-12-16T00:55:01.177Z,388.1
2022-12-16T01:00:01.086Z,369.1
2022-12-16T01:05:01.215Z,361.2
2022-12-16T01:10:01.086Z,336.4
2022-12-16T01:15:01.182Z,319.8
2022-12-16T01:20:01.104Z,318.8
2022-12-16T01:25:01.222Z,287.1
2022-12-16T01:30:01.162Z,274.8
2022-12-16T01:35:01.247Z,267.6
2022-12-16T01:40:01.100Z,249.4
2022-12-16T01:45:01.225Z,252.6
2022-12-16T02:05:01.021Z,258.2
2022-12-16T02:10:00.909Z,253.4
2022-12-16T02:15:01.059Z,246.2
2022-12-16T02:20:00.911Z,251.8
2022-12-16T02:35:01.655Z,373.8
2022-12-16T02:55:06.002Z,458.8
2022-12-16T03:00:00.901Z,451.0
2022-12-16T03:05:01.243Z,456.3
2022-12-16T03:10:00.898Z,456.7
2022-12-16T03:15:00.986Z,432.4
2022-12-16T03:20:00.896Z,433.6
2022-12-16T03:25:00.963Z,439.4
2022-12-16T03:30:00.903Z,445.7
2022-12-16T03:35:00.997Z,456.1
2022-12-16T03:40:00.905Z,484.6
2022-12-16T03:45:01.028Z,492.8
2022-12-16T03:50:00.903Z,499.2
2022-12-16T03:55:01.038Z,501.8
2022-12-16T04:00:00.898Z,482.2
2022-12-16T04:05:00.971Z,488.5
2022-12-16T04:10:00.901Z,498.5
2022-12-16T04:15:01.060Z,496.6
2022-12-16T04:20:00.915Z,501.5
2022-12-16T04:25:01.008Z,523.2
2022-12-16T04:30:00.911Z,516.0
2022-12-16T04:35:01.084Z,505.3
2022-12-16T04:40:01.386Z,499.4
2022-12-16T04:45:01.042Z,494.5
2022-12-16T04:50:00.912Z,458.4
2022-12-16T04:55:01.137Z,422.1
2022-12-16T05:00:00.911Z,405.2
2022-12-16T05:05:00.969Z,355.9
2022-12-16T05:10:00.906Z,327.7
2022-12-16T05:15:01.139Z,305.3
2022-12-16T05:20:00.948Z,296.6
2022-12-16T05:25:00.975Z,275.0
2022-12-16T05:30:00.904Z,290.8
2022-12-16T05:35:01.106Z,272.8
2022-12-16T05:40:01.008Z,289.0
2022-12-16T05:45:01.271Z,278.3
2022-12-16T05:50:00.909Z,264.3
2022-12-16T05:55:00.993Z,315.4
2022-12-16T06:00:00.911Z,307.0
2022-12-16T06:05:02.101Z,298.0
2022-12-16T06:10:00.908Z,320.1
2022-12-16T06:15:01.434Z,322.8
2022-12-16T06:20:00.907Z,269.1
2022-12-16T06:25:00.975Z,284.1
2022-12-16T06:30:00.915Z,288.0
2022-12-16T06:35:01.062Z,289.4
2022-12-16T06:40:00.931Z,299.7
2022-12-16T06:45:00.972Z,311.1
2022-12-16T06:50:00.909Z,318.1
2022-12-16T06:55:00.996Z,330.1
2022-12-16T07:00:01.374Z,334.7
2022-12-16T07:05:01.056Z,350.5
2022-12-16T07:10:00.913Z,352.6
2022-12-16T07:15:01.012Z,355.3
2022-12-16T07:20:00.917Z,364.2
2022-12-16T07:25:01.073Z,378.2
2022-12-16T07:30:00.921Z,383.0
2022-12-16T07:35:01.072Z,393.9
2022-12-16T07:40:00.914Z,401.9
2022-12-16T07:45:01.054Z,405.4
2022-12-16T07:50:00.917Z,407.2
2022-12-16T07:55:01.021Z,408.4
2022-12-16T08:00:00.915Z,410.9
2022-12-16T08:05:00.978Z,411.2
2022-12-16T08:10:00.915Z,416.0
2022-12-16T08:15:01.121Z,414.8
2022-12-16T08:20:00.909Z,419.1
2022-12-16T08:25:00.975Z,423.2
2022-12-16T08:30:00.909Z,429.4
2022-12-16T08:35:01.258Z,428.0
2022-12-16T08:40:26.025Z,435.1
2022-12-16T08:45:01.027Z,440.9
2022-12-16T09:05:01.730Z,452.0
2022-12-16T09:10:01.550Z,466.4
2022-12-16T09:15:01.671Z,456.7
2022-12-16T09:20:01.531Z,450.7
2022-12-16T09:25:01.803Z,458.0
2022-12-16T09:30:01.539Z,462.5
2022-12-16T09:35:11.686Z,467.4
2022-12-16T09:40:01.523Z,476.1
2022-12-16T09:45:01.841Z,485.3
2022-12-16T09:50:01.519Z,487.6
2022-12-16T09:55:01.637Z,486.7
2022-12-16T10:00:01.518Z,487.0
2022-12-16T10:05:01.669Z,485.4
2022-12-16T10:10:01.504Z,480.0
2022-12-16T10:15:01.561Z,478.2
2022-12-16T10:35:00.836Z,450.0
2022-12-16T10:40:01.168Z,465.7
2022-12-16T10:45:00.877Z,458.8
2022-12-16T10:50:00.873Z,461.6
2022-12-16T10:55:00.806Z,460.6
2022-12-16T11:15:28.932Z,514.6
2022-12-16T11:20:01.309Z,482.2
2022-12-16T11:35:01.255Z,411.4
2022-12-16T11:40:00.742Z,405.8
2022-12-16T11:45:00.803Z,409.1
2022-12-16T11:50:01.764Z,417.7
2022-12-16T11:55:01.005Z,420.2
2022-12-16T12:00:00.869Z,442.3
2022-12-16T12:05:00.929Z,449.6
2022-12-16T12:10:00.735Z,435.6
2022-12-16T12:25:01.698Z,397.4
2022-12-16T12:45:01.084Z,389.0
2022-12-16T12:50:00.934Z,382.3
2022-12-16T12:55:05.996Z,392.3
2022-12-16T13:00:02.418Z,392.9
2022-12-16T13:05:01.021Z,398.4
2022-12-16T13:10:00.933Z,401.8
2022-12-16T13:15:01.064Z,412.1
2022-12-16T13:20:00.935Z,406.8
2022-12-16T13:25:01.031Z,404.4
2022-12-16T13:30:00.940Z,392.9
2022-12-16T13:35:01.063Z,389.6
2022-12-16T13:40:00.939Z,382.0
2022-12-16T13:55:01.079Z,441.8
2022-12-16T14:00:00.914Z,425.0
2022-12-16T14:05:00.976Z,419.5
2022-12-16T14:10:01.932Z,414.2
2022-12-16T14:15:00.996Z,412.8
2022-12-16T14:20:00.902Z,416.1
2022-12-16T14:35:01.647Z,296.2
2022-12-16T14:40:01.532Z,363.2
2022-12-16T14:45:01.761Z,337.1
2022-12-16T14:50:01.572Z,337.3
2022-12-16T14:55:01.685Z,335.4
2022-12-16T15:00:01.521Z,374.2
2022-12-16T15:15:01.419Z,524.4
2022-12-16T15:20:03.507Z,511.0
2022-12-16T15:25:01.371Z,510.9
2022-12-16T15:30:01.240Z,525.1
2022-12-16T15:35:06.413Z,548.6
2022-12-16T15:40:01.240Z,569.9
2022-12-16T15:45:01.297Z,597.6
2022-12-16T15:50:04.228Z,634.4
2022-12-16T15:55:01.340Z,646.2
2022-12-16T16:00:01.258Z,642.3
2022-12-16T16:15:01.176Z,650.6
2022-12-16T16:20:03.653Z,634.2
2022-12-16T16:25:01.174Z,569.6
2022-12-16T16:30:06.117Z,519.9
2022-12-16T16:35:01.119Z,536.0
2022-12-16T16:40:01.054Z,526.5
2022-12-16T16:45:01.128Z,531.4
2022-12-16T16:50:01.106Z,575.9
2022-12-16T16:55:01.115Z,634.2
2022-12-16T17:00:01.132Z,653.9
2022-12-16T17:05:01.123Z,678.4
2022-12-16T17:10:01.164Z,690.5
2022-12-16T17:15:01.126Z,705.0
2022-12-16T17:35:01.136Z,701.6
2022-12-16T17:40:01.108Z,679.7
2022-12-16T17:45:01.172Z,682.1
2022-12-16T17:50:01.052Z,678.4
2022-12-16T17:55:01.161Z,675.9
2022-12-16T18:00:01.048Z,674.3
2022-12-16T18:05:01.137Z,669.8
2022-12-16T18:10:01.048Z,663.8
2022-12-16T18:15:01.138Z,668.2
2022-12-16T18:20:01.056Z,668.4
2022-12-16T18:25:01.104Z,649.5
2022-12-16T18:30:01.048Z,645.6
2022-12-16T18:35:01.217Z,639.8
2022-12-16T18:40:01.049Z,618.6
2022-12-16T18:45:01.713Z,597.9
2022-12-16T18:50:01.076Z,582.8
2022-12-16T18:55:01.204Z,560.8
2022-12-16T19:00:01.105Z,545.3
2022-12-16T19:05:01.132Z,534.6
2022-12-16T19:10:01.068Z,521.6
2022-12-16T19:15:02.108Z,512.0
2022-12-16T19:20:01.066Z,503.2
2022-12-16T19:25:01.144Z,490.9
2022-12-16T19:30:01.066Z,479.1
2022-12-16T19:35:01.288Z,477.4
2022-12-16T19:40:01.146Z,476.4
2022-12-16T19:45:01.199Z,481.0
2022-12-16T19:50:01.129Z,474.2
2022-12-16T19:55:01.210Z,474.7
2022-12-16T20:00:01.507Z,439.8
2022-12-16T20:05:01.164Z,444.6
2022-12-16T20:10:01.093Z,454.8
2022-12-16T20:15:01.226Z,469.7
2022-12-16T20:20:01.047Z,472.9
2022-12-16T20:25:01.191Z,515.8
2022-12-16T20:30:01.173Z,526.8
2022-12-16T20:35:01.145Z,521.8
2022-12-16T20:45:01.130Z,524.5
2022-12-16T20:50:01.059Z,506.3
2022-12-16T20:55:01.206Z,396.2
2022-12-16T21:00:01.135Z,400.4
2022-12-16T21:05:01.661Z,389.6
2022-12-16T21:10:01.022Z,323.3
2022-12-16T21:15:01.171Z,327.7
2022-12-16T21:20:01.025Z,423.2
2022-12-16T21:25:01.179Z,404.4
2022-12-16T21:30:01.025Z,392.9
2022-12-16T21:35:01.118Z,449.8
2022-12-16T21:40:01.054Z,456.0
2022-12-16T21:45:01.165Z,451.3
2022-12-16T21:50:01.063Z,457.2
2022-12-16T21:55:01.118Z,423.4
2022-12-16T22:00:01.115Z,417.7
2022-12-16T22:05:01.100Z,411.4
2022-12-16T22:10:01.107Z,415.3
2022-12-16T22:15:01.197Z,413.1
2022-12-16T22:20:02.059Z,463.6
2022-12-16T22:25:01.164Z,476.3
2022-12-16T22:30:01.030Z,487.3
2022-12-16T22:35:01.121Z,500.5
2022-12-16T22:40:01.094Z,509.0
2022-12-16T22:45:01.152Z,512.8
2022-12-16T22:50:01.045Z,525.6
2022-12-16T22:55:01.187Z,528.0
2022-12-16T23:00:01.045Z,483.4
2022-12-16T23:05:01.255Z,461.4
2022-12-16T23:10:01.526Z,436.2
2022-12-16T23:15:01.182Z,399.6
2022-12-16T23:20:01.067Z,359.8
2022-12-16T23:25:01.160Z,363.8
2022-12-16T23:30:01.038Z,368.8
2022-12-16T23:35:01.119Z,358.0
2022-12-16T23:40:01.036Z,383.0
2022-12-16T23:45:01.096Z,433.6
2022-12-16T23:50:01.033Z,483.1
2022-12-16T23:55:01.186Z,482.1
